createdAt,value
2023-02-25T00:01:34.724Z,100.00
2023-02-25T00:04:01.179Z,100.00
2023-02-25T00:06:27.819Z,100.00
2023-02-25T00:08:55.546Z,100.00
2023-02-25T00:11:24.060Z,100.00
2023-02-25T00:13:51.086Z,100.00
2023-02-25T00:16:18.484Z,100.00
2023-02-25T00:18:46.743Z,100.00
2023-02-25T00:21:15.757Z,100.00
2023-02-25T00:23:44.498Z,100.00
2023-02-25T00:26:11.728Z,100.00
2023-02-25T00:28:40.265Z,100.00
2023-02-25T00:31:09.218Z,100.00
2023-02-25T00:33:36.086Z,100.00
2023-02-25T00:36:06.549Z,100.00
2023-02-25T00:38:33.467Z,100.00
2023-02-25T00:41:06.956Z,100.00
2023-02-25T00:43:33.427Z,100.00
2023-02-25T00:46:00.067Z,100.00
2023-02-25T00:48:26.613Z,100.00
2023-02-25T00:50:53.058Z,100.00
2023-02-25T00:53:19.585Z,100.00
2023-02-25T00:55:46.090Z,100.00
2023-02-25T00:58:12.588Z,100.00
2023-02-25T01:00:51.373Z,100.00
2023-02-25T01:03:18.420Z,100.00
2023-02-25T01:05:49.324Z,100.00
2023-02-25T01:08:18.054Z,100.00
2023-02-25T01:10:45.562Z,100.00
2023-02-25T01:13:12.408Z,100.00
2023-02-25T01:15:39.033Z,100.00
2023-02-25T01:18:06.607Z,100.00
2023-02-25T01:20:37.081Z,100.00
2023-02-25T01:23:03.556Z,100.00
2023-02-25T01:25:30.239Z,100.00
2023-02-25T01:27:57.752Z,100.00
2023-02-25T01:30:24.179Z,100.00
2023-02-25T01:32:50.752Z,100.00
2023-02-25T01:35:17.354Z,100.00
2023-02-25T01:37:47.300Z,100.00
2023-02-25T01:40:17.913Z,100.00
2023-02-25T01:42:46.009Z,100.00
2023-02-25T01:45:18.342Z,100.00
2023-02-25T01:47:48.958Z,100.00
2023-02-25T01:50:15.723Z,100.00
2023-02-25T01:52:42.556Z,100.00
2023-02-25T01:55:11.014Z,100.00
2023-02-25T01:57:37.627Z,100.00
2023-02-25T02:00:16.378Z,100.00
2023-02-25T02:02:49.494Z,100.00
2023-02-25T02:05:16.920Z,100.00
2023-02-25T02:07:43.757Z,100.00
2023-02-25T02:10:10.801Z,100.00
2023-02-25T02:12:41.399Z,100.00
2023-02-25T02:15:14.261Z,100.00
2023-02-25T02:17:56.677Z,100.00
2023-02-25T02:20:46.456Z,100.00
2023-02-25T02:23:15.856Z,100.00
2023-02-25T02:26:17.637Z,100.00
2023-02-25T02:29:21.826Z,100.00
2023-02-25T02:32:08.854Z,100.00
2023-02-25T02:34:56.654Z,100.00
2023-02-25T02:37:44.907Z,100.00
2023-02-25T02:40:49.084Z,100.00
2023-02-25T02:43:30.900Z,100.00
2023-02-25T02:46:09.575Z,100.00
2023-02-25T02:49:03.383Z,100.00
2023-02-25T02:51:36.718Z,100.00
2023-02-25T02:54:06.001Z,100.00
2023-02-25T02:56:35.900Z,100.00
2023-02-25T02:59:06.814Z,100.00
2023-02-25T03:01:46.285Z,100.00
2023-02-25T03:04:17.096Z,100.00
2023-02-25T03:06:47.458Z,100.00
2023-02-25T03:09:24.553Z,100.00
2023-02-25T03:11:51.308Z,100.00
2023-02-25T03:14:18.395Z,100.00
2023-02-25T03:16:51.202Z,100.00
2023-02-25T03:19:32.124Z,100.00
2023-02-25T03:22:06.558Z,100.00
2023-02-25T03:24:39.819Z,100.00
2023-02-25T03:27:34.198Z,100.00
2023-02-25T03:30:13.226Z,100.00
2023-02-25T03:32:49.378Z,100.00
2023-02-25T03:35:18.974Z,100.00
2023-02-25T03:37:50.755Z,100.00
2023-02-25T03:40:20.100Z,100.00
2023-02-25T03:42:53.453Z,100.00
2023-02-25T03:45:21.562Z,100.00
2023-02-25T03:47:48.658Z,100.00
2023-02-25T03:50:26.214Z,100.00
2023-02-25T03:52:52.660Z,100.00
2023-02-25T03:55:19.979Z,100.00
2023-02-25T03:57:49.904Z,100.00
2023-02-25T04:00:30.154Z,100.00
2023-02-25T04:02:56.774Z,100.00
2023-02-25T04:05:27.738Z,100.00
2023-02-25T04:07:55.781Z,100.00
2023-02-25T04:10:22.263Z,100.00
2023-02-25T04:12:51.094Z,100.00
2023-02-25T04:15:19.279Z,100.00
2023-02-25T04:17:45.787Z,100.00
2023-02-25T04:20:14.282Z,100.00
2023-02-25T04:22:40.897Z,100.00
2023-02-25T04:25:08.309Z,100.00
2023-02-25T04:27:35.034Z,100.00
2023-02-25T04:30:01.870Z,100.00
2023-02-25T04:32:28.429Z,100.00
2023-02-25T04:34:54.967Z,100.00
2023-02-25T04:37:21.385Z,100.00
2023-02-25T04:39:47.895Z,100.00
2023-02-25T04:42:14.352Z,100.00
2023-02-25T04:44:40.823Z,100.00
2023-02-25T04:47:08.330Z,100.00
2023-02-25T04:49:44.913Z,100.00
2023-02-25T04:52:13.076Z,100.00
2023-02-25T04:54:39.590Z,100.00
2023-02-25T04:57:07.669Z,100.00
2023-02-25T04:59:34.146Z,100.00
2023-02-25T05:02:01.008Z,100.00
2023-02-25T05:04:27.546Z,100.00
2023-02-25T05:06:54.032Z,100.00
2023-02-25T05:09:21.246Z,100.00
2023-02-25T05:11:47.871Z,100.00
2023-02-25T05:14:14.540Z,100.00
2023-02-25T05:16:40.998Z,100.00
2023-02-25T05:19:07.476Z,100.00
2023-02-25T05:21:33.936Z,100.00
2023-02-25T05:24:02.147Z,100.00
2023-02-25T05:26:28.658Z,100.00
2023-02-25T05:28:57.212Z,100.00
2023-02-25T05:31:25.118Z,100.00
2023-02-25T05:33:52.463Z,100.00
2023-02-25T05:36:19.698Z,100.00
2023-02-25T05:38:46.740Z,100.00
2023-02-25T05:41:14.176Z,100.00
2023-02-25T05:43:41.657Z,100.00
2023-02-25T05:46:11.957Z,100.00
2023-02-25T05:48:40.655Z,100.00
2023-02-25T05:51:16.957Z,100.00
2023-02-25T05:53:44.755Z,100.00
2023-02-25T05:56:13.832Z,100.00
2023-02-25T05:58:40.397Z,100.00
2023-02-25T06:01:13.678Z,100.00
2023-02-25T06:03:41.697Z,100.00
2023-02-25T06:06:08.423Z,100.00
2023-02-25T06:08:35.061Z,100.00
2023-02-25T06:11:02.167Z,100.00
2023-02-25T06:13:28.820Z,100.00
2023-02-25T06:15:55.320Z,100.00
2023-02-25T06:18:21.941Z,100.00
2023-02-25T06:20:48.614Z,100.00
2023-02-25T06:23:15.065Z,100.00
2023-02-25T06:25:41.512Z,100.00
2023-02-25T06:28:07.969Z,100.00
2023-02-25T06:30:34.417Z,100.00
2023-02-25T06:33:00.932Z,100.00
2023-02-25T06:35:27.741Z,100.00
2023-02-25T06:37:59.505Z,100.00
2023-02-25T06:40:28.677Z,100.00
2023-02-25T06:42:55.129Z,100.00
2023-02-25T06:45:21.649Z,100.00
2023-02-25T06:47:48.078Z,100.00
2023-02-25T06:50:14.548Z,100.00
2023-02-25T06:52:41.177Z,100.00
2023-02-25T06:55:08.297Z,100.00
2023-02-25T06:57:35.980Z,100.00
2023-02-25T07:00:04.119Z,100.00
2023-02-25T07:02:30.501Z,100.00
2023-02-25T07:04:57.099Z,100.00
2023-02-25T07:07:23.911Z,100.00
2023-02-25T07:09:50.419Z,100.00
2023-02-25T07:12:16.852Z,100.00
2023-02-25T07:14:43.486Z,100.00
2023-02-25T07:17:09.973Z,100.00
2023-02-25T07:19:36.472Z,100.00
2023-02-25T07:22:03.254Z,100.00
2023-02-25T07:24:29.959Z,100.00
2023-02-25T07:26:56.530Z,100.00
2023-02-25T07:29:23.566Z,100.00
2023-02-25T07:31:50.118Z,100.00
2023-02-25T07:34:16.691Z,100.00
2023-02-25T07:36:43.098Z,100.00
2023-02-25T07:39:12.071Z,100.00
2023-02-25T07:41:39.347Z,100.00
2023-02-25T07:44:06.504Z,100.00
2023-02-25T07:46:33.283Z,100.00
2023-02-25T07:48:59.848Z,100.00
2023-02-25T07:51:26.819Z,100.00
2023-02-25T07:53:55.600Z,100.00
2023-02-25T07:56:24.375Z,100.00
2023-02-25T07:58:51.186Z,100.00
2023-02-25T08:01:24.555Z,100.00
2023-02-25T08:03:53.019Z,100.00
2023-02-25T08:06:20.953Z,100.00
2023-02-25T08:08:48.032Z,100.00
2023-02-25T08:11:14.779Z,100.00
2023-02-25T08:13:41.507Z,100.00
2023-02-25T08:16:10.790Z,100.00
2023-02-25T08:18:38.086Z,100.00
2023-02-25T08:21:05.118Z,100.00
2023-02-25T08:23:31.627Z,100.00
2023-02-25T08:25:58.867Z,100.00
2023-02-25T08:28:27.216Z,100.00
2023-02-25T08:30:54.607Z,100.00
2023-02-25T08:33:21.770Z,100.00
2023-02-25T08:35:48.194Z,100.00
2023-02-25T08:38:14.598Z,100.00
2023-02-25T08:40:41.850Z,100.00
2023-02-25T08:43:09.687Z,100.00
2023-02-25T08:45:42.673Z,100.00
2023-02-25T08:48:09.864Z,100.00
2023-02-25T08:50:36.325Z,100.00
2023-02-25T08:53:02.776Z,100.00
2023-02-25T08:55:29.316Z,100.00
2023-02-25T08:57:55.788Z,100.00
2023-02-25T09:00:22.721Z,100.00
2023-02-25T09:02:49.546Z,100.00
2023-02-25T09:05:16.098Z,100.00
2023-02-25T09:07:42.517Z,100.00
2023-02-25T09:10:10.179Z,100.00
2023-02-25T09:12:38.174Z,100.00
2023-02-25T09:15:05.582Z,100.00
2023-02-25T09:17:32.024Z,100.00
2023-02-25T09:20:01.209Z,100.00
2023-02-25T09:22:28.297Z,100.00
2023-02-25T09:24:55.351Z,100.00
2023-02-25T09:27:21.780Z,100.00
2023-02-25T09:29:48.305Z,100.00
2023-02-25T09:32:20.617Z,100.00
2023-02-25T09:34:49.189Z,100.00
2023-02-25T09:37:16.683Z,100.00
2023-02-25T09:39:43.205Z,100.00
2023-02-25T09:42:22.240Z,100.00
2023-02-25T09:44:53.317Z,100.00
2023-02-25T09:47:30.417Z,100.00
2023-02-25T09:49:59.944Z,100.00
2023-02-25T09:52:32.021Z,100.00
2023-02-25T09:55:22.817Z,100.00
2023-02-25T09:58:12.228Z,100.00
2023-02-25T10:01:06.069Z,100.00
2023-02-25T10:03:58.657Z,100.00
2023-02-25T10:06:35.706Z,100.00
2023-02-25T10:09:17.384Z,100.00
2023-02-25T10:12:15.908Z,100.00
2023-02-25T10:14:42.340Z,100.00
2023-02-25T10:17:37.950Z,100.00
2023-02-25T10:20:26.288Z,100.00
2023-02-25T10:23:05.849Z,100.00
2023-02-25T10:25:37.714Z,100.00
2023-02-25T10:28:10.341Z,100.00
2023-02-25T10:30:59.298Z,100.00
2023-02-25T10:33:28.278Z,100.00
2023-02-25T10:36:08.212Z,100.00
2023-02-25T10:38:37.901Z,100.00
2023-02-25T10:41:05.332Z,100.00
2023-02-25T10:43:34.434Z,100.00
2023-02-25T10:46:35.935Z,100.00
2023-02-25T10:49:16.225Z,100.00
2023-02-25T10:52:03.478Z,100.00
2023-02-25T10:54:35.571Z,100.00
2023-02-25T10:57:09.107Z,100.00
2023-02-25T10:59:39.509Z,100.00
2023-02-25T11:02:21.251Z,100.00
2023-02-25T11:04:49.125Z,100.00
2023-02-25T11:07:40.613Z,100.00
2023-02-25T11:10:13.275Z,100.00
2023-02-25T11:12:52.993Z,100.00
2023-02-25T11:15:46.180Z,100.00
2023-02-25T11:18:27.784Z,100.00
2023-02-25T11:21:01.023Z,100.00
2023-02-25T11:23:48.382Z,100.00
2023-02-25T11:26:41.820Z,100.00
2023-02-25T11:29:38.391Z,100.00
2023-02-25T11:32:20.542Z,100.00
2023-02-25T11:35:05.450Z,100.00
2023-02-25T11:37:37.800Z,100.00
2023-02-25T11:40:31.128Z,100.00
2023-02-25T11:43:06.808Z,100.00
2023-02-25T11:45:34.584Z,100.00
2023-02-25T11:48:04.474Z,100.00
2023-02-25T11:50:54.396Z,100.00
2023-02-25T11:53:35.822Z,100.00
2023-02-25T11:56:19.459Z,100.00
2023-02-25T11:59:04.334Z,100.00
2023-02-25T12:02:01.804Z,100.00
2023-02-25T12:04:56.917Z,100.00
2023-02-25T12:08:12.949Z,100.00
2023-02-25T12:10:49.183Z,100.00
2023-02-25T12:13:49.163Z,100.00
2023-02-25T12:16:41.007Z,100.00
2023-02-25T12:19:24.108Z,100.00
2023-02-25T12:22:15.476Z,100.00
2023-02-25T12:24:49.131Z,100.00
2023-02-25T12:27:38.288Z,100.00
2023-02-25T12:30:33.726Z,100.00
2023-02-25T12:33:17.348Z,100.00
2023-02-25T12:36:12.266Z,100.00
2023-02-25T12:39:12.684Z,100.00
2023-02-25T12:42:12.031Z,100.00
2023-02-25T12:44:56.820Z,100.00
2023-02-25T12:47:52.751Z,100.00
2023-02-25T12:50:51.472Z,100.00
2023-02-25T12:53:31.291Z,100.00
2023-02-25T12:56:19.513Z,100.00
2023-02-25T12:59:14.314Z,100.00
2023-02-25T13:02:12.752Z,100.00
2023-02-25T13:05:06.631Z,100.00
2023-02-25T13:07:48.197Z,100.00
2023-02-25T13:10:30.764Z,100.00
2023-02-25T13:13:17.048Z,100.00
2023-02-25T13:15:55.670Z,100.00
2023-02-25T13:18:35.650Z,100.00
2023-02-25T13:21:18.645Z,100.00
2023-02-25T13:23:57.965Z,100.00
2023-02-25T13:26:50.919Z,100.00
2023-02-25T13:29:37.792Z,96.66
2023-02-25T13:32:28.833Z,91.11
2023-02-25T13:35:13.515Z,90.31
2023-02-25T13:37:54.735Z,79.17
2023-02-25T13:40:30.321Z,74.63
2023-02-25T13:43:13.450Z,70.51
2023-02-25T13:46:09.909Z,71.57
2023-02-25T13:49:14.042Z,70.71
2023-02-25T13:52:13.313Z,75.23
2023-02-25T13:55:04.153Z,77.97
2023-02-25T13:57:50.405Z,68.99
2023-02-25T14:00:38.118Z,68.26
2023-02-25T14:03:42.054Z,68.89
2023-02-25T14:06:35.675Z,71.08
2023-02-25T14:09:26.916Z,71.51
2023-02-25T14:12:16.046Z,73.45
2023-02-25T14:14:48.615Z,74.84
2023-02-25T14:17:47.481Z,71.72
2023-02-25T14:20:36.582Z,75.02
2023-02-25T14:23:21.063Z,74.26
2023-02-25T14:25:53.968Z,75.21
2023-02-25T14:28:41.780Z,74.29
2023-02-25T14:31:14.492Z,71.46
2023-02-25T14:34:18.361Z,72.60
2023-02-25T14:36:44.734Z,72.00
2023-02-25T14:39:55.791Z,72.53
2023-02-25T14:42:36.636Z,67.17
2023-02-25T14:45:09.067Z,66.75
2023-02-25T14:47:57.861Z,67.68
2023-02-25T14:50:33.264Z,68.36
2023-02-25T14:53:25.457Z,67.53
2023-02-25T14:56:10.225Z,64.21
2023-02-25T14:58:49.203Z,65.64
2023-02-25T15:01:34.477Z,68.38
2023-02-25T15:04:23.005Z,69.73
2023-02-25T15:07:07.526Z,73.88
2023-02-25T15:09:55.297Z,72.41
2023-02-25T15:12:28.669Z,67.92
2023-02-25T15:15:23.302Z,67.60
2023-02-25T15:18:01.488Z,70.04
2023-02-25T15:20:41.482Z,70.20
2023-02-25T15:23:16.009Z,69.48
2023-02-25T15:25:50.651Z,65.15
2023-02-25T15:28:29.284Z,64.77
2023-02-25T15:30:58.924Z,66.79
2023-02-25T15:33:47.682Z,65.45
2023-02-25T15:36:14.059Z,66.57
2023-02-25T15:38:43.546Z,65.86
2023-02-25T15:41:28.888Z,63.60
2023-02-25T15:44:08.671Z,61.18
2023-02-25T15:46:35.168Z,61.10
2023-02-25T15:49:21.903Z,65.23
2023-02-25T15:51:55.185Z,61.50
2023-02-25T15:54:30.559Z,57.08
2023-02-25T15:56:58.134Z,57.77
2023-02-25T15:59:48.120Z,59.96
2023-02-25T16:02:29.886Z,58.29
2023-02-25T16:05:02.642Z,60.99
2023-02-25T16:08:04.898Z,60.33
2023-02-25T16:10:39.792Z,61.43
2023-02-25T16:13:16.270Z,62.61
2023-02-25T16:15:55.374Z,63.29
2023-02-25T16:18:45.157Z,62.51
2023-02-25T16:21:22.661Z,65.04
2023-02-25T16:23:49.517Z,69.45
2023-02-25T16:26:31.289Z,68.22
2023-02-25T16:28:57.677Z,66.72
2023-02-25T16:31:36.279Z,68.52
2023-02-25T16:34:09.075Z,68.87
2023-02-25T16:36:42.335Z,70.12
2023-02-25T16:39:29.049Z,67.11
2023-02-25T16:41:55.734Z,69.88
2023-02-25T16:44:30.055Z,68.11
2023-02-25T16:46:56.873Z,67.52
2023-02-25T16:49:30.407Z,65.17
2023-02-25T16:51:58.218Z,65.78
2023-02-25T16:54:33.362Z,67.79
2023-02-25T16:57:03.260Z,70.64
2023-02-25T16:59:35.560Z,70.35
2023-02-25T17:02:05.983Z,70.91
2023-02-25T17:04:35.343Z,68.27
2023-02-25T17:07:08.894Z,74.19
2023-02-25T17:09:36.030Z,75.61
2023-02-25T17:12:03.755Z,73.35
2023-02-25T17:14:31.597Z,69.44
2023-02-25T17:16:58.950Z,72.33
2023-02-25T17:19:26.677Z,72.34
2023-02-25T17:21:58.736Z,74.13
2023-02-25T17:24:31.821Z,72.40
2023-02-25T17:26:59.484Z,75.09
2023-02-25T17:29:35.289Z,74.38
2023-02-25T17:32:14.818Z,76.77
2023-02-25T17:34:43.034Z,76.76
2023-02-25T17:37:16.222Z,77.17
2023-02-25T17:39:45.605Z,78.44
2023-02-25T17:42:35.914Z,81.36
2023-02-25T17:45:07.259Z,81.01
2023-02-25T17:47:35.449Z,81.76
2023-02-25T17:50:29.364Z,79.79
2023-02-25T17:52:56.100Z,80.05
2023-02-25T17:55:33.237Z,79.57
2023-02-25T17:58:02.238Z,74.89
2023-02-25T18:00:36.468Z,73.70
2023-02-25T18:03:22.030Z,76.46
2023-02-25T18:06:00.306Z,76.27
2023-02-25T18:08:29.775Z,73.42
2023-02-25T18:11:17.245Z,75.95
2023-02-25T18:13:43.915Z,76.33
2023-02-25T18:16:26.430Z,75.94
2023-02-25T18:18:54.251Z,75.48
2023-02-25T18:21:20.713Z,77.41
2023-02-25T18:23:50.992Z,76.12
2023-02-25T18:26:25.117Z,75.79
2023-02-25T18:28:52.902Z,75.42
2023-02-25T18:31:20.288Z,75.89
2023-02-25T18:33:47.222Z,74.77
2023-02-25T18:36:23.524Z,78.92
2023-02-25T18:38:52.524Z,80.57
2023-02-25T18:41:19.004Z,79.65
2023-02-25T18:43:45.598Z,78.85
2023-02-25T18:46:12.205Z,78.14
2023-02-25T18:48:38.833Z,78.91
2023-02-25T18:51:11.513Z,79.24
2023-02-25T18:53:38.107Z,82.92
2023-02-25T18:56:04.937Z,82.70
2023-02-25T18:58:31.473Z,81.65
2023-02-25T19:01:00.703Z,81.63
2023-02-25T19:03:39.004Z,82.13
2023-02-25T19:06:06.189Z,83.04
2023-02-25T19:08:32.763Z,82.01
2023-02-25T19:10:59.350Z,81.27
2023-02-25T19:13:30.241Z,85.38
2023-02-25T19:15:57.998Z,85.73
2023-02-25T19:18:28.367Z,87.34
2023-02-25T19:20:55.291Z,89.59
2023-02-25T19:23:22.503Z,93.03
2023-02-25T19:25:58.018Z,94.14
2023-02-25T19:28:24.596Z,91.55
2023-02-25T19:30:55.872Z,90.05
2023-02-25T19:33:25.665Z,92.51
2023-02-25T19:35:52.816Z,96.53
2023-02-25T19:38:23.172Z,97.85
2023-02-25T19:40:49.927Z,97.01
2023-02-25T19:43:21.375Z,95.88
2023-02-25T19:45:52.602Z,100.00
2023-02-25T19:48:19.243Z,100.00
2023-02-25T19:50:46.324Z,100.00
2023-02-25T19:53:13.289Z,100.00
2023-02-25T19:55:42.667Z,100.00
2023-02-25T19:58:10.000Z,100.00
2023-02-25T20:00:42.692Z,100.00
2023-02-25T20:03:12.999Z,100.00
2023-02-25T20:05:43.315Z,100.00
2023-02-25T20:08:10.910Z,100.00
2023-02-25T20:10:43.679Z,100.00
2023-02-25T20:13:10.228Z,100.00
2023-02-25T20:15:36.866Z,100.00
2023-02-25T20:18:03.524Z,100.00
2023-02-25T20:20:30.548Z,100.00
2023-02-25T20:22:58.152Z,100.00
2023-02-25T20:25:25.132Z,100.00
2023-02-25T20:27:53.019Z,100.00
2023-02-25T20:30:19.615Z,100.00
2023-02-25T20:32:46.281Z,100.00
2023-02-25T20:35:20.916Z,100.00
2023-02-25T20:38:15.729Z,100.00
2023-02-25T20:40:42.310Z,100.00
2023-02-25T20:43:09.937Z,100.00
2023-02-25T20:45:37.074Z,100.00
2023-02-25T20:48:03.707Z,100.00
2023-02-25T20:50:30.800Z,100.00
2023-02-25T20:52:57.486Z,100.00
2023-02-25T20:55:24.241Z,100.00
2023-02-25T20:57:51.645Z,100.00
2023-02-25T21:00:20.533Z,100.00
2023-02-25T21:02:47.173Z,100.00
2023-02-25T21:05:13.726Z,100.00
2023-02-25T21:07:40.469Z,100.00
2023-02-25T21:10:07.738Z,100.00
2023-02-25T21:12:34.287Z,100.00
2023-02-25T21:15:00.945Z,100.00
2023-02-25T21:17:27.461Z,100.00
2023-02-25T21:19:53.898Z,100.00
2023-02-25T21:22:20.409Z,100.00
2023-02-25T21:24:46.898Z,100.00
2023-02-25T21:27:13.385Z,100.00
2023-02-25T21:29:39.861Z,100.00
2023-02-25T21:32:06.465Z,100.00
2023-02-25T21:34:33.165Z,100.00
2023-02-25T21:36:59.665Z,100.00
2023-02-25T21:39:28.286Z,100.00
2023-02-25T21:41:56.365Z,100.00
2023-02-25T21:44:23.492Z,100.00
2023-02-25T21:46:50.218Z,100.00
2023-02-25T21:49:16.950Z,100.00
2023-02-25T21:51:44.334Z,100.00
2023-02-25T21:54:11.008Z,100.00
2023-02-25T21:56:37.705Z,100.00
2023-02-25T21:59:05.966Z,100.00
2023-02-25T22:01:35.791Z,100.00
2023-02-25T22:04:03.292Z,100.00
2023-02-25T22:06:29.971Z,100.00
2023-02-25T22:08:57.362Z,100.00
2023-02-25T22:11:27.387Z,100.00
2023-02-25T22:13:54.616Z,100.00
2023-02-25T22:16:23.346Z,100.00
2023-02-25T22:18:50.967Z,100.00
2023-02-25T22:21:21.354Z,100.00
2023-02-25T22:23:49.910Z,100.00
2023-02-25T22:26:19.734Z,100.00
2023-02-25T22:28:47.156Z,100.00
2023-02-25T22:31:16.082Z,100.00
2023-02-25T22:33:43.744Z,100.00
2023-02-25T22:36:12.047Z,100.00
2023-02-25T22:38:42.039Z,100.00
2023-02-25T22:41:14.908Z,100.00
2023-02-25T22:43:41.603Z,100.00
2023-02-25T22:46:24.189Z,100.00
2023-02-25T22:48:52.599Z,100.00
2023-02-25T22:51:26.010Z,100.00
2023-02-25T22:53:53.292Z,100.00
2023-02-25T22:56:20.131Z,100.00
2023-02-25T22:58:48.232Z,100.00
2023-02-25T23:01:17.044Z,100.00
2023-02-25T23:03:46.351Z,100.00
2023-02-25T23:06:15.516Z,100.00
2023-02-25T23:08:43.240Z,100.00
2023-02-25T23:11:13.587Z,100.00
2023-02-25T23:13:46.079Z,100.00
2023-02-25T23:16:15.342Z,100.00
2023-02-25T23:18:42.609Z,100.00
2023-02-25T23:21:17.071Z,100.00
2023-02-25T23:23:44.156Z,100.00
2023-02-25T23:26:17.597Z,100.00
2023-02-25T23:28:45.364Z,100.00
2023-02-25T23:31:23.952Z,100.00
2023-02-25T23:33:55.984Z,100.00
2023-02-25T23:36:23.109Z,100.00
2023-02-25T23:38:54.573Z,100.00
2023-02-25T23:41:21.116Z,100.00
2023-02-25T23:43:47.866Z,100.00
2023-02-25T23:46:14.404Z,100.00
2023-02-25T23:48:41.022Z,100.00
2023-02-25T23:51:08.881Z,100.00
2023-02-25T23:53:36.088Z,100.00
2023-02-25T23:56:07.589Z,100.00
2023-02-25T23:58:34.905Z,100.00
